createdAt,value
2019-06-26T01:44:13.989Z,14.79
2019-06-26T01:45:02.839Z,14.88
2019-06-26T01:46:03.521Z,13.32
2019-06-26T01:47:02.984Z,11.54
2019-06-26T01:48:03.524Z,14.41
2019-06-26T01:49:03.275Z,12.06
2019-06-26T01:50:03.331Z,11.54
2019-06-26T01:51:02.804Z,18.86
2019-06-26T01:52:03.650Z,12.78
2019-06-26T01:53:02.951Z,16.91
2019-06-26T01:54:03.458Z,12.8
2019-06-26T01:55:02.920Z,14.87
2019-06-26T01:56:02.545Z,13.68
2019-06-26T01:57:03.357Z,12.18
2019-06-26T01:58:02.534Z,16.09
2019-06-26T01:59:03.388Z,11.35
2019-06-26T02:00:02.780Z,16.46
2019-06-26T02:01:03.417Z,13.5
2019-06-26T02:02:03.068Z,30.48
2019-06-26T02:03:03.556Z,12.62
2019-06-26T02:04:02.870Z,14.28
2019-06-26T02:05:03.542Z,14.11
2019-06-26T02:06:02.777Z,13.95
2019-06-26T02:07:02.758Z,13.15
2019-06-26T02:08:03.372Z,17.91
2019-06-26T02:09:02.615Z,14.58
2019-06-26T02:10:03.344Z,13.52
2019-06-26T02:11:02.571Z,15.08
2019-06-26T02:12:03.383Z,14.58
2019-06-26T02:13:02.395Z,15.35
2019-06-26T02:14:02.765Z,15.35
2019-06-26T02:15:03.243Z,20.59
2019-06-26T02:16:02.763Z,13.57
2019-06-26T02:17:03.127Z,13.57
2019-06-26T02:18:02.936Z,17.33
2019-06-26T02:19:03.155Z,16.66
2019-06-26T02:20:02.799Z,16.75
2019-06-26T02:21:03.599Z,13.17
2019-06-26T02:22:02.741Z,14.16
2019-06-26T02:23:03.197Z,14.54
2019-06-26T02:24:02.469Z,18.46
2019-06-26T02:25:03.537Z,19.55
2019-06-26T02:26:02.966Z,14.25
2019-06-26T02:27:02.557Z,22.36
2019-06-26T02:28:03.264Z,17.78
2019-06-26T02:29:02.756Z,13.52
2019-06-26T02:30:02.846Z,16.21
2019-06-26T02:31:02.763Z,21.74
2019-06-26T02:32:03.247Z,14.39
2019-06-26T02:33:02.781Z,15.26
2019-06-26T02:34:03.488Z,14.72
2019-06-26T02:35:03.001Z,12.27
2019-06-26T02:36:03.373Z,14.61
2019-06-26T02:37:02.928Z,11.36
2019-06-26T02:38:03.519Z,10.55
2019-06-26T02:39:03.208Z,12.54
2019-06-26T02:40:02.661Z,11.45
2019-06-26T02:41:03.029Z,12.67
2019-06-26T02:42:03.376Z,11.42
2019-06-26T02:43:06.625Z,12.52
2019-06-26T02:44:03.600Z,12.58
2019-06-26T02:45:03.056Z,12.66
2019-06-26T02:46:02.734Z,13.37
2019-06-26T02:47:18.015Z,14.12
2019-06-26T02:48:02.781Z,11.81
2019-06-26T02:49:03.409Z,15.32
2019-06-26T02:50:03.666Z,13.75
2019-06-26T02:51:03.564Z,13.75
2019-06-26T02:52:02.959Z,17.51
2019-06-26T02:53:02.566Z,17.51
2019-06-26T02:54:03.260Z,18.43
2019-06-26T02:55:03.633Z,16.88
2019-06-26T02:56:03.011Z,13.99
2019-06-26T02:57:03.290Z,18.4
2019-06-26T02:58:02.789Z,15.55
2019-06-26T02:59:02.769Z,15.32
2019-06-26T03:00:03.303Z,16.16
2019-06-26T03:01:02.607Z,13.94
2019-06-26T03:02:03.431Z,16.65
2019-06-26T03:03:02.737Z,13.52
2019-06-26T03:04:02.841Z,13.83
2019-06-26T03:05:02.899Z,12.62
2019-06-26T03:06:03.573Z,20.06
2019-06-26T03:07:02.801Z,20.35
2019-06-26T03:08:03.509Z,15.78
2019-06-26T03:09:02.997Z,14.84
2019-06-26T03:10:02.694Z,17.12
2019-06-26T03:11:03.206Z,22.81
2019-06-26T03:12:02.767Z,16.62
2019-06-26T03:13:03.005Z,16.35
2019-06-26T03:14:02.723Z,17.16
2019-06-26T03:15:08.621Z,14.42
2019-06-26T03:16:03.466Z,15.95
2019-06-26T03:17:03.163Z,15.56
2019-06-26T03:18:02.863Z,17.67
2019-06-26T03:19:03.380Z,14.38
2019-06-26T03:20:02.696Z,14.76
2019-06-26T03:21:03.227Z,16.88
2019-06-26T03:22:02.668Z,17.92
2019-06-26T03:23:03.195Z,14.67
2019-06-26T03:24:02.789Z,17.21
2019-06-26T03:25:03.121Z,18.18
2019-06-26T03:26:03.667Z,16.06
2019-06-26T03:27:03.427Z,14.82
2019-06-26T03:28:02.713Z,14.82
2019-06-26T03:29:03.637Z,17.69
2019-06-26T03:30:03.176Z,17.69
2019-06-26T03:31:02.815Z,17.37
2019-06-26T03:32:02.978Z,14.56
2019-06-26T03:33:02.978Z,14.56
2019-06-26T03:34:03.099Z,17.04
2019-06-26T03:35:03.167Z,22.94
2019-06-26T03:36:02.684Z,16.79
2019-06-26T03:37:03.149Z,14.67
2019-06-26T03:38:02.319Z,16.79
2019-06-26T03:39:03.044Z,22.63
2019-06-26T03:40:02.545Z,20.19
2019-06-26T03:41:03.391Z,21.58
2019-06-26T03:42:02.930Z,15.87
2019-06-26T03:43:02.582Z,16.34
2019-06-26T03:44:03.046Z,18.31
2019-06-26T03:45:02.941Z,20.56
2019-06-26T03:46:03.619Z,18.91
2019-06-26T03:47:03.476Z,19.64
2019-06-26T03:48:02.696Z,16.32
2019-06-26T03:49:03.158Z,12.9
2019-06-26T03:50:02.893Z,17.85
2019-06-26T03:51:03.633Z,15.67
2019-06-26T03:52:02.918Z,14.81
2019-06-26T03:53:03.509Z,15.65
2019-06-26T03:54:02.868Z,17.28
2019-06-26T03:55:03.432Z,15.61
2019-06-26T03:56:03.173Z,14.82
2019-06-26T03:57:02.683Z,21.72
2019-06-26T03:58:03.264Z,25.94
2019-06-26T03:59:02.646Z,16.47
2019-06-26T04:00:03.596Z,15.58
2019-06-26T04:01:03.106Z,15.12
2019-06-26T04:02:02.881Z,13.81
2019-06-26T04:03:02.956Z,15.18
2019-06-26T04:04:02.541Z,15.18
2019-06-26T04:05:03.064Z,18.25
2019-06-26T04:06:02.745Z,15.25
2019-06-26T04:07:03.417Z,15.25
2019-06-26T04:08:02.903Z,14.31
2019-06-26T04:09:03.602Z,14.31
2019-06-26T04:10:02.927Z,14.21
2019-06-26T04:11:03.291Z,12.41
2019-06-26T04:12:02.593Z,12.91
2019-06-26T04:13:03.241Z,15.78
2019-06-26T04:14:03.087Z,15.43
2019-06-26T04:15:03.608Z,11.25
2019-06-26T04:16:02.968Z,13.78
2019-06-26T04:17:03.411Z,13.85
2019-06-26T04:18:03.514Z,16.99
2019-06-26T04:19:03.334Z,13.26
2019-06-26T04:20:03.256Z,15.95
2019-06-26T04:21:02.691Z,16.24
2019-06-26T04:22:03.031Z,17.15
2019-06-26T04:23:02.817Z,13.48
2019-06-26T04:24:03.155Z,12.96
2019-06-26T04:25:03.042Z,16.25
2019-06-26T04:26:03.212Z,20.78
2019-06-26T04:27:02.737Z,19.35
2019-06-26T04:28:06.322Z,17.65
2019-06-26T04:29:02.964Z,14.66
2019-06-26T04:30:03.386Z,17.3
2019-06-26T04:31:03.003Z,16.82
2019-06-26T04:32:02.639Z,15.36
2019-06-26T04:33:03.053Z,13.71
2019-06-26T04:34:03.446Z,13.18
2019-06-26T04:35:03.335Z,17.04
2019-06-26T04:36:03.326Z,19.32
2019-06-26T04:37:02.597Z,28.81
2019-06-26T04:38:02.312Z,17.13
2019-06-26T04:39:03.480Z,15.78
2019-06-26T04:40:03.085Z,16.18
2019-06-26T04:41:03.237Z,18.82
2019-06-26T04:42:03.013Z,15.92
2019-06-26T04:43:03.373Z,15.92
2019-06-26T04:44:02.960Z,16.84
2019-06-26T04:45:03.505Z,19.92
2019-06-26T04:46:03.229Z,19.92
2019-06-26T04:47:03.545Z,18.35
2019-06-26T04:48:06.736Z,22.04
2019-06-26T04:49:03.385Z,16.16
2019-06-26T04:50:03.448Z,16.6
2019-06-26T04:51:02.981Z,17.71
2019-06-26T04:52:02.853Z,23.32
2019-06-26T04:53:03.112Z,22.77
2019-06-26T04:54:02.642Z,19.49
2019-06-26T04:55:03.275Z,22.45
2019-06-26T04:56:02.880Z,17.42
2019-06-26T04:57:03.095Z,20.29
2019-06-26T04:58:02.672Z,18.38
2019-06-26T04:59:03.016Z,20.66
2019-06-26T05:00:02.837Z,19.1
2019-06-26T05:01:03.167Z,18.11
2019-06-26T05:02:02.477Z,18.52
2019-06-26T05:03:03.691Z,19.64
2019-06-26T05:04:03.141Z,18.2
2019-06-26T05:05:03.376Z,25.18
2019-06-26T05:06:02.700Z,17.29
2019-06-26T05:07:02.461Z,19.06
2019-06-26T05:08:03.117Z,18.93
2019-06-26T05:09:03.069Z,20.51
2019-06-26T05:10:02.851Z,27.59
2019-06-26T05:11:03.024Z,17.93
2019-06-26T05:12:03.442Z,19.05
2019-06-26T05:13:03.013Z,25.92
2019-06-26T05:14:02.482Z,19.12
2019-06-26T05:15:03.345Z,34.02
2019-06-26T05:16:14.073Z,18.69
2019-06-26T05:17:02.654Z,28.62
2019-06-26T05:18:03.144Z,19.58
2019-06-26T05:19:03.195Z,19.58
2019-06-26T05:20:03.191Z,19.58
2019-06-26T05:21:03.441Z,14.98
2019-06-26T05:22:03.267Z,19.03
2019-06-26T05:23:03.446Z,19.03
2019-06-26T05:24:03.127Z,15.84
2019-06-26T05:25:03.583Z,20.21
2019-06-26T05:26:02.869Z,19.87
2019-06-26T05:27:02.672Z,27.26
2019-06-26T05:28:03.011Z,19.85
2019-06-26T05:29:02.547Z,24.72
2019-06-26T05:30:02.978Z,20.15
2019-06-26T05:31:03.024Z,17.16
2019-06-26T05:32:03.381Z,19.35
2019-06-26T05:33:02.941Z,22.38
2019-06-26T05:34:03.461Z,16.49
2019-06-26T05:35:03.147Z,20.65
2019-06-26T05:36:02.949Z,20.27
2019-06-26T05:37:02.904Z,16.22
2019-06-26T05:38:02.593Z,16.05
2019-06-26T05:39:03.043Z,18.7
2019-06-26T05:40:02.856Z,18.54
2019-06-26T05:41:03.371Z,26.13
2019-06-26T05:42:04.439Z,21.55
2019-06-26T05:43:03.333Z,25.26
2019-06-26T05:44:02.950Z,19.32
2019-06-26T05:45:03.705Z,21.49
2019-06-26T05:46:02.567Z,19.76
2019-06-26T05:47:06.907Z,20.1
2019-06-26T05:48:03.000Z,18.29
2019-06-26T05:49:02.833Z,21.69
2019-06-26T05:50:03.425Z,25.49
2019-06-26T05:51:02.867Z,18.65
2019-06-26T05:52:03.281Z,19.62
2019-06-26T05:53:03.300Z,17.37
2019-06-26T05:54:02.800Z,26.52
2019-06-26T05:55:03.618Z,19.85
2019-06-26T05:56:03.549Z,23.75
2019-06-26T05:57:03.067Z,24.07
2019-06-26T05:58:02.802Z,23.36
2019-06-26T05:59:02.595Z,16.35
2019-06-26T06:00:03.345Z,17
2019-06-26T06:01:03.166Z,16.14
2019-06-26T06:02:03.420Z,16.42
2019-06-26T06:03:02.874Z,18.47
2019-06-26T06:04:03.399Z,17.65
2019-06-26T06:05:03.178Z,18.81
2019-06-26T06:06:02.637Z,21.96
2019-06-26T06:07:03.485Z,20.09
2019-06-26T06:08:02.779Z,19.09
2019-06-26T06:09:03.588Z,16.16
2019-06-26T06:10:03.518Z,16.24
2019-06-26T06:11:03.014Z,15.94
2019-06-26T06:12:03.443Z,18.21
2019-06-26T06:13:03.132Z,21.62
2019-06-26T06:14:03.456Z,23.95
2019-06-26T06:15:03.331Z,18.62
2019-06-26T06:16:06.203Z,18.55
2019-06-26T06:17:03.383Z,17.38
2019-06-26T06:18:03.180Z,18.49
2019-06-26T06:19:02.888Z,20.25
2019-06-26T06:20:03.113Z,17.46
2019-06-26T06:21:02.899Z,17.46
2019-06-26T06:22:03.314Z,17.54
2019-06-26T06:23:03.555Z,17.54
2019-06-26T06:24:02.788Z,17.31
2019-06-26T06:25:03.699Z,17.31
2019-06-26T06:26:02.929Z,20.25
2019-06-26T06:27:03.387Z,19.45
2019-06-26T06:28:03.034Z,19.45
2019-06-26T06:29:02.539Z,18.04
2019-06-26T06:30:03.640Z,18.04
2019-06-26T06:31:03.103Z,19.19
2019-06-26T06:32:03.300Z,19.35
2019-06-26T06:33:02.962Z,19.15
2019-06-26T06:34:03.414Z,20.01
2019-06-26T06:35:02.649Z,20.08
2019-06-26T06:36:03.366Z,20.15
2019-06-26T06:37:03.221Z,17.31
2019-06-26T06:38:02.545Z,17.46
2019-06-26T06:39:02.434Z,17.68
2019-06-26T06:40:02.985Z,19.61
2019-06-26T06:41:03.574Z,20.22
2019-06-26T06:42:03.096Z,19.32
2019-06-26T06:43:02.875Z,17.2
2019-06-26T06:44:03.379Z,23.36
2019-06-26T06:45:02.977Z,19.49
2019-06-26T06:46:03.433Z,22.58
2019-06-26T06:47:04.487Z,15.02
2019-06-26T06:48:02.287Z,16.93
2019-06-26T06:49:03.367Z,19.34
2019-06-26T06:50:02.818Z,16.89
2019-06-26T06:51:03.410Z,17.74
2019-06-26T06:52:02.966Z,22.35
2019-06-26T06:53:03.017Z,17.34
2019-06-26T06:54:02.724Z,19.6
2019-06-26T06:55:02.683Z,19.37
2019-06-26T06:56:03.484Z,21.08
2019-06-26T06:57:03.056Z,16.64
2019-06-26T06:58:03.518Z,18.61
2019-06-26T06:59:02.989Z,25.98
2019-06-26T07:00:02.884Z,25.82
2019-06-26T07:01:03.419Z,17.24
2019-06-26T07:02:02.836Z,15.22
2019-06-26T07:03:03.710Z,16.83
2019-06-26T07:04:02.955Z,23.65
2019-06-26T07:05:02.225Z,18.3
2019-06-26T07:06:03.123Z,18.54
2019-06-26T07:07:02.434Z,22.44
2019-06-26T07:08:03.082Z,25.51
2019-06-26T07:09:03.055Z,17.69
2019-06-26T07:10:03.422Z,20.81
2019-06-26T07:11:03.015Z,19.51
2019-06-26T07:12:03.515Z,19.33
2019-06-26T07:13:03.044Z,18.77
2019-06-26T07:14:03.027Z,21.38
2019-06-26T07:15:03.384Z,16.85
2019-06-26T07:16:02.734Z,19.42
2019-06-26T07:17:15.982Z,18.29
2019-06-26T07:18:02.961Z,17.81
2019-06-26T07:19:03.094Z,21.28
2019-06-26T07:20:03.248Z,19.96
2019-06-26T07:21:02.964Z,16.59
2019-06-26T07:22:07.014Z,18.14
2019-06-26T07:23:02.532Z,22.69
2019-06-26T07:24:03.412Z,16.6
2019-06-26T07:25:02.920Z,19.76
2019-06-26T07:26:02.873Z,17.02
2019-06-26T07:27:03.479Z,18.79
2019-06-26T07:28:02.898Z,15.42
2019-06-26T07:29:02.938Z,15.78
2019-06-26T07:30:03.567Z,17.16
2019-06-26T07:31:02.427Z,21.41
2019-06-26T07:32:03.611Z,22.01
2019-06-26T07:33:03.148Z,17.37
2019-06-26T07:34:02.934Z,20.41
2019-06-26T07:35:03.155Z,21.98
2019-06-26T07:36:02.943Z,19.61
2019-06-26T07:37:02.642Z,19.46
2019-06-26T07:38:03.053Z,18.55
2019-06-26T07:39:03.607Z,19.9
2019-06-26T07:40:03.207Z,17.77
2019-06-26T07:41:03.103Z,17.77
2019-06-26T07:43:03.170Z,19.09
2019-06-26T07:44:02.760Z,20.81
2019-06-26T07:45:03.367Z,25.41
2019-06-26T07:46:02.785Z,23.74
2019-06-26T07:47:03.005Z,18.24
2019-06-26T07:48:03.278Z,22.08
2019-06-26T07:49:03.306Z,19.43
2019-06-26T07:50:03.626Z,22.75
2019-06-26T07:51:03.016Z,19.69
2019-06-26T07:52:03.386Z,19.69
2019-06-26T07:53:03.281Z,22.85
2019-06-26T07:54:02.729Z,22.85
2019-06-26T07:55:03.343Z,20.76
2019-06-26T07:56:02.707Z,19.56
2019-06-26T07:57:02.467Z,19.56
2019-06-26T07:58:03.196Z,17.81
2019-06-26T07:59:02.686Z,17.81
2019-06-26T08:00:02.931Z,19.7
2019-06-26T08:01:03.364Z,19.7
2019-06-26T08:02:02.990Z,21.96
2019-06-26T08:03:04.402Z,17.56
2019-06-26T08:04:03.527Z,17.56
2019-06-26T08:05:03.050Z,17.96
2019-06-26T08:06:03.280Z,25.16
2019-06-26T08:07:03.060Z,23.04
2019-06-26T08:08:03.538Z,21.29
2019-06-26T08:09:03.572Z,16.83
2019-06-26T08:10:03.094Z,18.98
2019-06-26T08:11:06.104Z,19.6
2019-06-26T08:12:02.895Z,15.12
2019-06-26T08:13:02.721Z,15.31
2019-06-26T08:14:03.325Z,16.08
2019-06-26T08:15:03.284Z,17.81
2019-06-26T08:16:02.659Z,15.9
2019-06-26T08:17:03.331Z,14.07
2019-06-26T08:18:02.706Z,13.7
2019-06-26T08:19:03.462Z,14.9
2019-06-26T08:20:02.960Z,16.56
2019-06-26T08:21:11.857Z,18.31
2019-06-26T08:22:02.860Z,15.63
2019-06-26T08:23:02.871Z,16.79
2019-06-26T08:24:03.507Z,17.62
2019-06-26T08:25:03.295Z,13.39
2019-06-26T08:26:03.402Z,14.31
2019-06-26T08:27:03.020Z,12.77
2019-06-26T08:28:03.135Z,18.92
2019-06-26T08:29:03.711Z,17.21
2019-06-26T08:30:03.270Z,16.36
2019-06-26T08:31:02.673Z,15.36
2019-06-26T08:32:03.220Z,21.49
2019-06-26T08:33:02.645Z,13.14
2019-06-26T08:34:02.937Z,14.92
2019-06-26T08:35:03.338Z,15.54
2019-06-26T08:36:02.434Z,14.87
2019-06-26T08:37:03.420Z,16.69
2019-06-26T08:38:10.130Z,14.41
2019-06-26T08:39:03.146Z,15.54
2019-06-26T08:40:03.124Z,14.76
2019-06-26T08:41:02.546Z,14.08
2019-06-26T08:42:02.991Z,16.61
2019-06-26T08:43:02.894Z,13.85
2019-06-26T08:44:03.290Z,15.77
2019-06-26T08:45:02.779Z,12.42
2019-06-26T08:46:03.440Z,17.21
2019-06-26T08:47:03.291Z,13.64
2019-06-26T08:48:16.562Z,13.11
2019-06-26T08:49:02.513Z,14.74
2019-06-26T08:50:03.172Z,12.78
2019-06-26T08:51:02.563Z,16.89
2019-06-26T08:52:04.011Z,16.68
2019-06-26T08:53:03.066Z,13.49
2019-06-26T08:54:04.745Z,11.39
2019-06-26T08:55:03.231Z,14.51
2019-06-26T08:56:02.577Z,20.48
2019-06-26T08:57:02.992Z,17.59
2019-06-26T08:58:03.565Z,20.58
2019-06-26T08:59:03.215Z,12.96
2019-06-26T09:00:03.124Z,15.12
2019-06-26T09:01:03.435Z,13.63
2019-06-26T09:02:02.876Z,13.78
2019-06-26T09:03:03.727Z,12.28
2019-06-26T09:04:03.168Z,16.09
2019-06-26T09:05:02.938Z,11.53
2019-06-26T09:06:03.520Z,12.54
2019-06-26T09:07:02.929Z,13.54
2019-06-26T09:08:03.521Z,11.54
2019-06-26T09:09:02.610Z,11.86
2019-06-26T09:10:03.726Z,10.68
2019-06-26T09:11:03.338Z,13.31
2019-06-26T09:12:02.883Z,11.51
2019-06-26T09:13:02.253Z,9.89
2019-06-26T09:14:02.936Z,14.44
2019-06-26T09:15:03.349Z,10
2019-06-26T09:16:03.468Z,14.62
2019-06-26T09:17:02.691Z,14.62
2019-06-26T09:18:03.232Z,9.83
2019-06-26T09:19:02.834Z,11.43
2019-06-26T09:20:03.519Z,11.43
2019-06-26T09:21:02.583Z,11.37
2019-06-26T09:22:03.598Z,9.64
2019-06-26T09:23:02.577Z,9.09
2019-06-26T09:24:02.490Z,9.09
2019-06-26T09:25:20.086Z,9.82
2019-06-26T09:26:02.779Z,9.26
2019-06-26T09:27:03.171Z,9.26
2019-06-26T09:28:02.625Z,14.28
2019-06-26T09:29:02.180Z,12.64
2019-06-26T09:30:03.404Z,12.64
2019-06-26T09:31:02.561Z,11.21
2019-06-26T09:32:03.462Z,13.9
2019-06-26T09:33:03.110Z,9.86
2019-06-26T09:34:02.607Z,9.86
2019-06-26T09:35:03.265Z,10.28
2019-06-26T09:36:06.698Z,7.98
2019-06-26T09:37:03.526Z,8.78
2019-06-26T09:38:03.055Z,8.47
2019-06-26T09:39:02.770Z,7.22
2019-06-26T09:40:03.366Z,8.47
2019-06-26T09:41:02.951Z,8.34
2019-06-26T09:42:02.415Z,9.11
2019-06-26T09:43:03.315Z,8.86
2019-06-26T09:44:02.752Z,10.88
2019-06-26T09:45:03.806Z,8.38
2019-06-26T09:46:02.800Z,9.01
2019-06-26T09:47:03.375Z,7.63
2019-06-26T09:48:03.063Z,7.4
2019-06-26T09:49:02.716Z,12.32
2019-06-26T09:50:03.653Z,7.8
2019-06-26T09:51:02.791Z,7.84
2019-06-26T09:52:03.493Z,7.94
2019-06-26T09:53:05.292Z,8.56
2019-06-26T09:54:02.813Z,10.78
2019-06-26T09:55:03.414Z,15.19
2019-06-26T09:56:03.308Z,7.86
2019-06-26T09:57:02.474Z,9.08
2019-06-26T09:58:03.179Z,8.29
2019-06-26T09:59:02.564Z,24.08
2019-06-26T10:00:03.313Z,14.11
2019-06-26T10:01:03.113Z,10.19
2019-06-26T10:02:02.857Z,8.29
2019-06-26T10:03:03.423Z,9.02
2019-06-26T10:04:03.365Z,8.12
2019-06-26T10:05:02.993Z,9.46
2019-06-26T10:06:03.393Z,9.66
2019-06-26T10:07:03.239Z,8.16
2019-06-26T10:08:03.543Z,8.14
2019-06-26T10:09:03.364Z,8.61
2019-06-26T10:10:03.375Z,10.89
2019-06-26T10:11:02.469Z,9.26
2019-06-26T10:12:03.203Z,13.64
2019-06-26T10:13:02.878Z,13.14
2019-06-26T10:14:03.420Z,12.09
2019-06-26T10:15:02.965Z,9.25
2019-06-26T10:16:03.524Z,8.52
2019-06-26T10:17:03.075Z,8.92
2019-06-26T10:18:02.593Z,6.75
2019-06-26T10:19:09.864Z,6.46
2019-06-26T10:20:02.966Z,6.75
2019-06-26T10:21:02.384Z,8.43
2019-06-26T10:22:03.334Z,6.98
2019-06-26T10:23:02.994Z,7.84
2019-06-26T10:24:03.565Z,6.36
2019-06-26T10:25:03.555Z,8.18
2019-06-26T10:26:02.554Z,7.71
2019-06-26T10:27:03.589Z,6.39
2019-06-26T10:28:03.283Z,7.51
2019-06-26T10:29:03.430Z,7.31
2019-06-26T10:30:03.759Z,7.72
2019-06-26T10:31:03.230Z,10.01
2019-06-26T10:32:03.472Z,10.68
2019-06-26T10:33:02.821Z,8.45
2019-06-26T10:34:02.659Z,7.33
2019-06-26T10:35:03.182Z,7.38
2019-06-26T10:36:02.935Z,10.33
2019-06-26T10:37:03.204Z,14.58
2019-06-26T10:38:02.753Z,6.92
2019-06-26T10:39:02.719Z,6.06
2019-06-26T10:40:03.245Z,7.36
2019-06-26T10:41:02.670Z,14.06
2019-06-26T10:42:03.556Z,5.72
2019-06-26T10:43:03.109Z,6.12
2019-06-26T10:44:03.617Z,7.96
2019-06-26T10:45:03.728Z,5.85
2019-06-26T10:46:03.077Z,5.43
2019-06-26T10:47:03.671Z,5.43
2019-06-26T10:48:03.185Z,11.36
2019-06-26T10:49:02.724Z,11.36
2019-06-26T10:50:02.908Z,12.39
2019-06-26T10:51:03.450Z,10.23
2019-06-26T10:52:02.611Z,5.88
2019-06-26T10:53:03.012Z,9.94
2019-06-26T10:54:03.158Z,8.29
2019-06-26T10:55:03.980Z,6.75
2019-06-26T10:56:03.027Z,6.91
2019-06-26T10:57:03.680Z,5.94
2019-06-26T10:58:02.865Z,8.19
2019-06-26T10:59:02.591Z,6.25
2019-06-26T11:00:03.492Z,6.05
2019-06-26T11:01:03.278Z,5.66
2019-06-26T11:02:02.717Z,6.22
2019-06-26T11:03:03.208Z,14.28
2019-06-26T11:04:02.612Z,9.64
2019-06-26T11:05:02.962Z,8.31
2019-06-26T11:06:03.046Z,6.68
2019-06-26T11:07:02.579Z,7.53
2019-06-26T11:08:03.623Z,12.04
2019-06-26T11:09:02.910Z,8.48
2019-06-26T11:10:02.738Z,8.19
2019-06-26T11:11:03.381Z,8.11
2019-06-26T11:12:02.740Z,13.15
2019-06-26T11:15:03.308Z,6.02
2019-06-26T11:16:03.558Z,6.64
2019-06-26T11:17:02.769Z,6.29
2019-06-26T11:18:03.422Z,6.06
2019-06-26T11:19:04.032Z,8.43
2019-06-26T11:20:03.383Z,6.93
2019-06-26T11:21:03.106Z,9.28
2019-06-26T11:22:03.122Z,7.98
2019-06-26T11:23:03.015Z,7.08
2019-06-26T11:24:02.920Z,7.28
2019-06-26T11:25:03.020Z,5.24
2019-06-26T11:26:02.673Z,5.66
2019-06-26T11:27:03.527Z,6.42
2019-06-26T11:28:03.249Z,5.55
2019-06-26T11:29:02.651Z,7.79
2019-06-26T11:30:03.719Z,6.29
2019-06-26T11:31:02.938Z,6.3
2019-06-26T11:32:03.422Z,9.33
2019-06-26T11:33:03.077Z,11.91
2019-06-26T11:34:02.942Z,6.78
2019-06-26T11:35:02.731Z,6.23
2019-06-26T11:36:03.242Z,14.14
2019-06-26T11:37:04.036Z,6.69
2019-06-26T11:38:02.750Z,6.95
2019-06-26T11:39:02.659Z,9.59
2019-06-26T11:40:03.392Z,9.28
2019-06-26T11:41:03.016Z,8.98
2019-06-26T11:42:02.775Z,7.43
2019-06-26T11:43:03.083Z,7.2
2019-06-26T11:45:03.010Z,7.82
2019-06-26T11:46:02.900Z,7.37
2019-06-26T11:47:03.705Z,6.66
2019-06-26T11:48:02.990Z,10.02
2019-06-26T11:49:03.510Z,9.65
2019-06-26T11:50:02.960Z,8.08
2019-06-26T11:51:03.482Z,5.89
2019-06-26T11:52:03.264Z,8.36
2019-06-26T11:53:03.060Z,5.79
2019-06-26T11:54:03.562Z,7.39
2019-06-26T11:55:03.826Z,14.37
2019-06-26T11:56:03.357Z,6.17
2019-06-26T11:57:02.986Z,9.74
2019-06-26T11:58:03.353Z,9.48
2019-06-26T11:59:03.031Z,7.15
2019-06-26T12:00:02.788Z,9.78
2019-06-26T12:01:03.612Z,10.72
2019-06-26T12:02:02.707Z,12.18
2019-06-26T12:03:03.469Z,9.11
2019-06-26T12:04:03.306Z,7.81
2019-06-26T12:05:03.219Z,11.35
2019-06-26T12:06:15.640Z,6.15
2019-06-26T12:07:03.360Z,11.86
2019-06-26T12:08:02.969Z,14.59
2019-06-26T12:09:03.392Z,7.71
2019-06-26T12:10:03.258Z,7.81
2019-06-26T12:11:03.579Z,8.4
2019-06-26T12:12:03.430Z,17.07
2019-06-26T12:13:04.151Z,18.33
2019-06-26T12:14:03.214Z,18.33
2019-06-26T12:15:02.987Z,8.31
2019-06-26T12:16:03.431Z,7.81
2019-06-26T12:17:03.547Z,8.23
2019-06-26T12:18:03.147Z,5.83
2019-06-26T12:19:02.518Z,5.83
2019-06-26T12:20:16.906Z,8.6
2019-06-26T12:21:03.296Z,7.52
2019-06-26T12:22:02.517Z,8.73
2019-06-26T12:23:02.963Z,8.73
2019-06-26T12:24:03.435Z,8.93
2019-06-26T12:25:03.673Z,9.69
2019-06-26T12:26:03.186Z,9.69
2019-06-26T12:27:03.413Z,6.18
2019-06-26T12:28:02.924Z,10.73
2019-06-26T12:29:03.082Z,10.73
2019-06-26T12:30:03.509Z,7.41
2019-06-26T12:31:02.897Z,5.9
2019-06-26T12:32:02.964Z,6.05
2019-06-26T12:33:03.837Z,6.38
2019-06-26T12:34:03.744Z,10.36
2019-06-26T12:35:02.753Z,8.44
2019-06-26T12:36:03.647Z,11.34
2019-06-26T12:37:02.725Z,7.28
2019-06-26T12:38:02.891Z,8.39
2019-06-26T12:39:03.077Z,9.32
2019-06-26T12:40:03.016Z,17.58
2019-06-26T12:41:02.961Z,10.38
2019-06-26T12:42:03.779Z,6.48
2019-06-26T12:43:03.047Z,14.07
2019-06-26T12:44:02.980Z,8.17
2019-06-26T12:45:03.426Z,12.8
2019-06-26T12:46:03.091Z,7.34
2019-06-26T12:47:02.682Z,8.55
2019-06-26T12:48:03.314Z,7.76
2019-06-26T12:49:03.377Z,9.41
2019-06-26T12:50:03.292Z,11.11
2019-06-26T12:51:02.999Z,18.42
2019-06-26T12:52:03.129Z,16.87
2019-06-26T12:53:03.336Z,10.55
2019-06-26T12:54:03.598Z,14.85
2019-06-26T12:55:03.170Z,10.48
2019-06-26T12:56:03.215Z,11.92
2019-06-26T12:57:03.132Z,7.34
2019-06-26T12:58:12.895Z,10.38
2019-06-26T12:59:02.862Z,16.99
2019-06-26T13:00:03.168Z,9.24
2019-06-26T13:01:02.596Z,8.38
2019-06-26T13:02:03.114Z,8.44
2019-06-26T13:03:02.730Z,14.54
2019-06-26T13:04:03.207Z,5.68
2019-06-26T13:05:03.617Z,10.57
2019-06-26T13:06:03.117Z,11.59
2019-06-26T13:07:02.774Z,8.12
2019-06-26T13:08:02.899Z,11.65
2019-06-26T13:09:03.353Z,5.83
2019-06-26T13:10:07.176Z,9.71
2019-06-26T13:11:03.033Z,16.72
2019-06-26T13:12:02.621Z,11.79
2019-06-26T13:13:02.768Z,10.11
2019-06-26T13:14:03.283Z,10.86
2019-06-26T13:15:02.789Z,6.53
2019-06-26T13:16:03.402Z,11.1
2019-06-26T13:17:03.933Z,9.58
2019-06-26T13:18:02.867Z,7.5
2019-06-26T13:19:03.668Z,13.68
2019-06-26T13:20:02.702Z,11.96
2019-06-26T13:21:05.144Z,6.26
2019-06-26T13:22:02.651Z,14.14
2019-06-26T13:23:02.922Z,16.68
2019-06-26T13:24:03.063Z,8.65
2019-06-26T13:25:02.681Z,14.21
2019-06-26T13:26:02.762Z,13.85
2019-06-26T13:27:03.440Z,15.82
2019-06-26T13:28:02.878Z,14.56
2019-06-26T13:29:03.398Z,8.74
2019-06-26T13:30:02.925Z,13.5
2019-06-26T13:31:03.461Z,7.65
2019-06-26T13:32:02.875Z,10.38
2019-06-26T13:33:03.122Z,13.81
2019-06-26T13:34:02.572Z,10.36
2019-06-26T13:35:03.674Z,11.72
2019-06-26T13:36:02.794Z,10.12
2019-06-26T13:37:03.160Z,8.96
2019-06-26T13:38:04.777Z,13.69
2019-06-26T13:39:03.336Z,7.09
2019-06-26T13:40:03.623Z,11.43
2019-06-26T13:41:02.668Z,11.48
2019-06-26T13:42:03.091Z,11.14
2019-06-26T13:43:03.507Z,6.79
2019-06-26T13:44:02.756Z,11.28
2019-06-26T13:45:03.197Z,14.71
2019-06-26T13:46:02.852Z,14.71
2019-06-26T13:47:02.950Z,12.02
2019-06-26T13:48:03.185Z,10.45
2019-06-26T13:49:02.832Z,10.45
2019-06-26T13:50:03.088Z,8.59
2019-06-26T13:51:09.123Z,8.59
2019-06-26T13:52:02.832Z,7.28
2019-06-26T13:53:03.393Z,7.28
2019-06-26T13:54:02.811Z,5.96
2019-06-26T13:55:03.376Z,15.88
2019-06-26T13:56:03.981Z,15.64
2019-06-26T13:57:02.971Z,12.35
2019-06-26T13:58:03.447Z,8.08
2019-06-26T13:59:06.448Z,11.28
2019-06-26T14:00:02.062Z,9.56
2019-06-26T14:01:03.452Z,9.56
2019-06-26T14:02:03.227Z,11.94
2019-06-26T14:03:03.266Z,14.69
2019-06-26T14:04:02.593Z,14.21
2019-06-26T14:05:03.209Z,11.13
2019-06-26T14:06:02.625Z,9.09
2019-06-26T14:07:03.200Z,9.92
2019-06-26T14:08:03.602Z,8.98
2019-06-26T14:09:03.280Z,12.48
2019-06-26T14:10:03.548Z,6.15
2019-06-26T14:11:02.561Z,8.06
2019-06-26T14:12:03.358Z,12.82
2019-06-26T14:13:02.796Z,10.34
2019-06-26T14:14:03.148Z,14.34
2019-06-26T14:15:03.090Z,6.46
2019-06-26T14:16:03.197Z,9.48
2019-06-26T14:17:03.155Z,8.11
2019-06-26T14:18:03.358Z,14.71
2019-06-26T14:19:02.921Z,9.77
2019-06-26T14:20:03.287Z,11.42
2019-06-26T14:21:02.930Z,8.43
2019-06-26T14:22:02.980Z,9.01
2019-06-26T14:23:03.644Z,10.8
2019-06-26T14:24:02.903Z,8.24
2019-06-26T14:25:03.355Z,11.35
2019-06-26T14:26:02.466Z,27.07
2019-06-26T14:27:03.026Z,24.03
2019-06-26T14:28:03.407Z,20.26
2019-06-26T14:29:02.949Z,16.72
2019-06-26T14:30:03.069Z,17.56
2019-06-26T14:31:03.704Z,9.3
2019-06-26T14:32:03.087Z,7.85
2019-06-26T14:33:02.665Z,11.05
2019-06-26T14:34:03.198Z,15.01
2019-06-26T14:35:03.444Z,11.96
2019-06-26T14:36:03.149Z,7.98
2019-06-26T14:37:02.825Z,10.58
2019-06-26T14:38:03.128Z,14.43
2019-06-26T14:39:03.442Z,8.44
2019-06-26T14:40:03.307Z,10.45
2019-06-26T14:41:03.185Z,19.48
2019-06-26T14:42:02.733Z,16.83
2019-06-26T14:43:03.386Z,12.04
2019-06-26T14:44:03.073Z,12.39
2019-06-26T14:45:03.183Z,13.25
2019-06-26T14:46:02.629Z,10.29
2019-06-26T14:47:02.959Z,17.33
2019-06-26T14:48:03.461Z,14.49